Akron Canton Regional Airport
KCAK : rendu visible

Aérodrome :











RETROUVEZ-NOUS SUR...

 
LOGIN :

S'inscrire | Disclaimer

   EN    FR    IT 

 









Légende :    VFR   VFR Marginal   IFR   IFR Intensif   IFR Très Intensif
Visi : 
Plafond : 
>= 8 km
>= 3000ft
5 à 8 km
1000 à 3000 ft
1500m à 5 km
500 à 1000 ft
800 à 1500m
200 à 500 ft
< 800m
< 200 ft
Symboles :   Orages  Brouillard  Fortes neiges  Fortes précipitations  Vent > 20 kt






- Altitude de l'aérodrome : 1228 ft
- Code IATA : CAK


KCAK - Akron Canton Regional

DERNIER METAR :
  • 251751Z 16006KT 10SM SCT050 SCT250 30/19 A3010 RMK AO2 SLP182 T03000189 10306 20217 58007

METARs EXPIRÉS :
  • 251651Z 26003KT 10SM FEW046 SCT250 29/17 A3011 RMK AO2 SLP185 T02940172
  • 251551Z 00000KT 9SM FEW040 FEW250 29/18 A3012 RMK AO2 SLP189 T02890178

TAF KCAK
Valide du 25 à 18h jusqu'au 26 à 18h UTC


251738Z 2518/2618 23005KT P6SM SCT040
FM252300 15004KT P6SM FEW040 SCT150
FIR KZOB / Amérique du Nord



MET'MAP, la Météo Aéronautique d'un coup d'oeil ! - Copyright ORBIFLY Décembre 2007 - Disclaimer

ORBIFLY MET'MAP TEAM :

Programmation & Développement : Alexandra Zaïnal
Sur une idée originale de : Baudouin d'Aumeries
Assistance à la programmation : Marc-Olivier Méhu
Soutien technique & logistique : Manuel Goepfert

Contact : metmap@orbifly.com




SOURCES & CREDITS :

   NOAA       Earth
Advisory